Time;durP1;ratioP1;P1;durP2;ratioP2;P2;SDS_P1;SDS_P2;PMS_P1;PMS_P2;Temp;Humidity;BMP_temperature;BMP_pressure;BME280_temperature;BME280_humidity;BME280_pressure;Samples;Min_cycle;Max_cycle;Signal;HPM_P1;HPM_P2
2022/12/10 00:01:49;;;;;;;42.87;15.77;;;1.10;99.90;;;;;;4192231;28;20497;-79
2022/12/10 00:03:51;;;;;;;43.30;17.00;;;1.10;99.90;;;;;;4194473;28;20459;-78
2022/12/10 00:05:53;;;;;;;48.97;17.33;;;1.10;99.90;;;;;;4192780;28;20494;-78
2022/12/10 00:08:00;;;;;;;40.73;16.00;;;1.10;99.90;;;;;;4191978;28;20497;-77
2022/12/10 00:10:02;;;;;;;44.83;16.50;;;1.10;99.90;;;;;;4193780;28;20469;-78
2022/12/10 00:12:04;;;;;;;47.37;16.13;;;1.10;99.90;;;;;;4189121;28;20495;-77
2022/12/10 00:14:07;;;;;;;45.40;15.90;;;1.10;99.90;;;;;;4189804;28;20444;-77
2022/12/10 00:16:11;;;;;;;42.90;16.07;;;1.10;99.90;;;;;;4190839;28;20472;-78
2022/12/10 00:18:13;;;;;;;43.83;14.97;;;1.10;99.90;;;;;;4194380;28;20478;-78
2022/12/10 00:20:15;;;;;;;41.83;15.97;;;1.10;99.90;;;;;;4188819;28;20448;-79
2022/12/10 00:22:17;;;;;;;39.60;14.67;;;1.00;99.90;;;;;;4190056;28;20448;-78
2022/12/10 00:24:21;;;;;;;43.57;15.13;;;1.00;99.90;;;;;;4190584;28;20463;-79
2022/12/10 00:26:26;;;;;;;45.30;15.47;;;1.20;99.90;;;;;;4190743;28;21391;-77
2022/12/10 00:28:27;;;;;;;44.13;15.40;;;1.00;99.90;;;;;;4195493;28;20497;-79
2022/12/10 00:30:29;;;;;;;42.67;14.87;;;1.00;99.90;;;;;;4191227;28;20456;-77
2022/12/10 00:32:31;;;;;;;41.47;15.07;;;1.00;99.90;;;;;;4192418;28;20490;-77
2022/12/10 00:34:33;;;;;;;38.43;14.53;;;1.00;99.90;;;;;;4193079;28;20488;-77
2022/12/10 00:36:38;;;;;;;36.87;14.13;;;1.00;99.90;;;;;;4191316;28;20456;-77
2022/12/10 00:38:41;;;;;;;39.80;14.40;;;1.00;99.90;;;;;;4192219;28;20451;-78
2022/12/10 00:40:45;;;;;;;41.20;15.30;;;1.20;99.90;;;;;;4190956;28;20456;-77
2022/12/10 00:42:47;;;;;;;40.70;14.97;;;0.90;99.90;;;;;;4192280;28;20442;-77
2022/12/10 00:44:49;;;;;;;40.70;15.00;;;1.00;99.90;;;;;;4193190;28;20536;-77
2022/12/10 00:46:51;;;;;;;42.17;15.63;;;1.00;99.90;;;;;;4192700;28;20483;-77
2022/12/10 00:48:54;;;;;;;39.23;15.03;;;0.90;99.90;;;;;;4192613;28;20455;-77
2022/12/10 00:50:59;;;;;;;41.27;14.97;;;0.90;99.90;;;;;;4191906;28;20501;-78
2022/12/10 00:53:01;;;;;;;40.30;15.17;;;0.90;99.90;;;;;;4188405;28;20458;-78
2022/12/10 00:55:03;;;;;;;42.87;15.27;;;0.90;99.90;;;;;;4195797;28;20491;-78
2022/12/10 00:57:06;;;;;;;38.80;15.53;;;0.90;99.90;;;;;;4192696;28;20451;-78
2022/12/10 00:59:11;;;;;;;39.97;14.60;;;0.90;99.90;;;;;;4193945;28;20463;-77
2022/12/10 01:01:16;;;;;;;44.97;15.13;;;0.80;99.90;;;;;;4190895;28;20475;-78
2022/12/10 01:03:19;;;;;;;42.80;15.47;;;0.80;99.90;;;;;;4192412;28;20508;-77
2022/12/10 01:05:21;;;;;;;40.80;15.37;;;0.90;99.90;;;;;;4188793;28;20475;-77
2022/12/10 01:07:23;;;;;;;40.67;15.73;;;0.90;99.90;;;;;;4194032;28;20520;-77
2022/12/10 01:09:27;;;;;;;40.73;15.43;;;0.80;99.90;;;;;;4191206;28;20467;-77
2022/12/10 01:11:32;;;;;;;41.03;14.93;;;0.80;99.90;;;;;;4193748;28;20520;-77
2022/12/10 01:13:35;;;;;;;43.67;14.80;;;0.80;99.90;;;;;;4195764;28;20461;-77
2022/12/10 01:15:39;;;;;;;37.20;15.03;;;0.80;99.90;;;;;;4193573;28;20576;-78
2022/12/10 01:17:41;;;;;;;42.93;15.93;;;0.80;99.90;;;;;;4192399;28;21192;-78
2022/12/10 01:19:43;;;;;;;42.77;15.73;;;0.80;99.90;;;;;;4194553;28;20853;-77
2022/12/10 01:21:45;;;;;;;40.50;15.30;;;0.80;99.90;;;;;;4189697;28;20949;-77
2022/12/10 01:23:50;;;;;;;36.63;13.90;;;0.80;99.90;;;;;;4192211;28;20467;-77
2022/12/10 01:25:52;;;;;;;47.73;16.40;;;0.80;99.90;;;;;;4192303;28;20479;-77
2022/12/10 01:27:53;;;;;;;44.37;16.40;;;0.80;99.90;;;;;;4196250;28;20510;-77
2022/12/10 01:29:57;;;;;;;44.40;16.80;;;0.80;99.90;;;;;;4189774;28;20455;-77
2022/12/10 01:31:59;;;;;;;48.10;14.90;;;0.90;99.90;;;;;;4194440;28;20496;-77
2022/12/10 01:34:01;;;;;;;45.93;16.20;;;0.80;99.90;;;;;;4192720;28;21195;-77
2022/12/10 01:36:05;;;;;;;37.90;15.33;;;0.80;99.90;;;;;;4196814;28;20510;-77
2022/12/10 01:38:07;;;;;;;40.37;15.07;;;0.80;99.90;;;;;;4193580;28;20468;-77
2022/12/10 01:40:10;;;;;;;40.93;16.33;;;0.80;99.90;;;;;;4195116;28;20541;-77
2022/12/10 01:42:14;;;;;;;46.27;16.80;;;0.80;99.90;;;;;;4197228;28;20462;-78
2022/12/10 01:44:53;;;;;;;46.53;17.00;;;0.80;99.90;;;;;;4196959;28;20489;-77
2022/12/10 01:46:59;;;;;;;41.33;15.17;;;0.70;99.90;;;;;;4197430;28;20489;-78
2022/12/10 01:49:02;;;;;;;42.50;15.47;;;0.70;99.90;;;;;;4195298;28;20466;-78
2022/12/10 01:51:05;;;;;;;44.17;15.60;;;0.70;99.90;;;;;;4194378;28;20555;-77
2022/12/10 01:53:07;;;;;;;43.40;15.50;;;0.70;99.90;;;;;;4192309;28;20474;-78
2022/12/10 01:55:40;;;;;;;41.93;15.37;;;0.70;99.90;;;;;;4199387;28;20516;-78
2022/12/10 01:57:42;;;;;;;38.13;14.33;;;0.70;99.90;;;;;;4194885;28;20462;-77
2022/12/10 01:59:46;;;;;;;37.37;14.53;;;0.70;99.90;;;;;;4192525;28;20474;-77
2022/12/10 02:01:53;;;;;;;37.17;14.20;;;0.70;99.90;;;;;;4194647;28;20463;-76
2022/12/10 02:04:10;;;;;;;42.23;15.20;;;0.70;99.90;;;;;;4195236;28;20475;-77
2022/12/10 02:06:28;;;;;;;42.03;15.00;;;0.70;99.90;;;;;;4196692;28;20527;-77
2022/12/10 02:08:42;;;;;;;36.67;13.80;;;0.70;99.90;;;;;;4193672;28;21098;-75
2022/12/10 02:10:56;;;;;;;41.03;13.73;;;0.90;99.90;;;;;;4192599;28;20470;-77
2022/12/10 02:13:05;;;;;;;37.77;13.07;;;0.70;99.90;;;;;;4196317;28;20471;-77
2022/12/10 02:15:14;;;;;;;42.80;15.47;;;0.70;99.90;;;;;;4200469;28;20485;-77
2022/12/10 02:17:20;;;;;;;42.33;15.60;;;0.80;99.90;;;;;;4195016;28;20830;-77
2022/12/10 02:19:35;;;;;;;45.63;16.33;;;1.00;99.90;;;;;;4195250;28;22194;-77
2022/12/10 02:21:41;;;;;;;39.77;15.10;;;0.70;99.90;;;;;;4195632;28;20463;-78
2022/12/10 02:23:47;;;;;;;41.57;14.67;;;0.70;99.90;;;;;;4196259;28;20548;-77
2022/12/10 02:25:54;;;;;;;38.23;14.77;;;0.70;99.90;;;;;;4193866;28;20498;-77
2022/12/10 02:28:02;;;;;;;37.87;13.63;;;0.60;99.90;;;;;;4192430;28;20492;-79
2022/12/10 02:30:07;;;;;;;41.00;13.90;;;0.60;99.90;;;;;;4193626;28;21035;-77
2022/12/10 02:32:14;;;;;;;36.47;14.00;;;0.70;99.90;;;;;;4195990;28;20458;-76
2022/12/10 02:34:18;;;;;;;34.07;12.43;;;0.70;99.90;;;;;;4190941;28;20509;-78
2022/12/10 02:36:22;;;;;;;36.17;13.47;;;0.60;99.90;;;;;;4191391;28;20566;-77
2022/12/10 02:38:28;;;;;;;37.00;13.20;;;0.70;99.90;;;;;;4195719;28;20455;-77
2022/12/10 02:40:33;;;;;;;33.90;13.30;;;0.70;99.90;;;;;;4194179;28;20679;-77
2022/12/10 02:42:39;;;;;;;32.70;12.17;;;0.60;99.90;;;;;;4194805;28;20463;-77
2022/12/10 02:44:44;;;;;;;28.60;11.37;;;1.30;99.90;;;;;;4193335;28;20499;-77
2022/12/10 02:46:50;;;;;;;31.93;12.43;;;0.60;99.90;;;;;;4193753;28;20469;-77
2022/12/10 02:48:53;;;;;;;33.63;12.40;;;0.60;99.90;;;;;;4194017;28;20472;-76
2022/12/10 02:50:55;;;;;;;33.90;12.77;;;0.60;99.90;;;;;;4193709;28;20467;-78
2022/12/10 02:52:56;;;;;;;37.57;12.70;;;0.60;99.90;;;;;;4194874;28;20556;-76
2022/12/10 02:54:58;;;;;;;38.73;12.77;;;0.60;99.90;;;;;;4192592;28;20575;-76
2022/12/10 02:57:06;;;;;;;33.93;13.40;;;0.60;99.90;;;;;;4197236;28;20988;-77
2022/12/10 02:59:17;;;;;;;31.53;12.40;;;0.60;99.90;;;;;;4200499;28;20441;-79
2022/12/10 03:01:27;;;;;;;36.37;13.37;;;0.60;99.90;;;;;;4196754;28;21043;-79
2022/12/10 03:03:45;;;;;;;41.47;13.87;;;0.60;99.90;;;;;;4191798;28;20452;-78
2022/12/10 03:05:54;;;;;;;39.20;14.03;;;0.60;99.90;;;;;;4194415;28;20935;-78
2022/12/10 03:07:59;;;;;;;38.50;13.80;;;0.90;99.90;;;;;;4192932;28;20479;-77
2022/12/10 03:10:05;;;;;;;36.17;12.80;;;0.60;99.90;;;;;;4192803;28;20881;-77
2022/12/10 03:12:13;;;;;;;33.27;12.93;;;0.70;99.90;;;;;;4197732;28;20520;-78
2022/12/10 03:14:19;;;;;;;32.13;12.63;;;0.60;99.90;;;;;;4195111;28;20465;-77
2022/12/10 03:16:26;;;;;;;36.93;13.07;;;0.80;99.90;;;;;;4188114;28;20459;-77
2022/12/10 03:18:30;;;;;;;33.90;12.50;;;0.60;99.90;;;;;;4195638;28;20460;-78
2022/12/10 03:20:37;;;;;;;35.43;13.77;;;0.60;99.90;;;;;;4193071;28;20496;-77
2022/12/10 03:22:43;;;;;;;34.83;12.83;;;0.60;99.90;;;;;;4194586;28;20453;-77
2022/12/10 03:24:45;;;;;;;34.63;13.73;;;0.60;99.90;;;;;;4197162;28;20553;-77
2022/12/10 03:26:49;;;;;;;34.60;14.13;;;0.70;99.90;;;;;;4195734;28;20441;-77
2022/12/10 03:28:53;;;;;;;33.97;13.07;;;0.60;99.90;;;;;;4192282;28;20525;-77
2022/12/10 03:30:57;;;;;;;35.87;13.80;;;0.60;99.90;;;;;;4188893;28;20470;-77
2022/12/10 03:33:00;;;;;;;36.07;12.73;;;0.60;99.90;;;;;;4191290;28;20831;-77
2022/12/10 03:35:03;;;;;;;34.30;13.10;;;0.50;99.90;;;;;;4193694;28;20490;-78
2022/12/10 03:37:07;;;;;;;35.90;12.57;;;0.60;99.90;;;;;;4194641;28;20459;-77
2022/12/10 03:39:09;;;;;;;33.97;13.67;;;0.60;99.90;;;;;;4191082;28;20537;-77
2022/12/10 03:41:11;;;;;;;35.50;14.00;;;0.60;99.90;;;;;;4194260;28;20462;-77
2022/12/10 03:43:14;;;;;;;36.77;12.83;;;0.60;99.90;;;;;;4191059;28;20463;-77
2022/12/10 03:45:16;;;;;;;37.57;13.60;;;0.60;99.90;;;;;;4196357;28;20487;-76
2022/12/10 03:47:18;;;;;;;39.63;14.97;;;0.50;99.90;;;;;;4195820;28;20450;-78
2022/12/10 03:49:20;;;;;;;37.43;15.20;;;0.60;99.90;;;;;;4197132;28;21171;-78
2022/12/10 03:51:23;;;;;;;44.50;15.43;;;0.50;99.90;;;;;;4193898;28;20470;-77
2022/12/10 03:53:26;;;;;;;40.77;13.60;;;0.50;99.90;;;;;;4195750;28;20452;-78
2022/12/10 03:55:28;;;;;;;33.27;13.90;;;0.50;99.90;;;;;;4188608;28;20914;-77
2022/12/10 03:57:30;;;;;;;41.03;14.90;;;0.50;99.90;;;;;;4194113;28;20546;-77
2022/12/10 03:59:31;;;;;;;40.53;14.77;;;0.50;99.90;;;;;;4194844;28;20458;-77
2022/12/10 04:01:34;;;;;;;39.80;14.60;;;0.60;99.90;;;;;;4193770;28;20477;-78
2022/12/10 04:03:37;;;;;;;38.00;13.80;;;0.50;99.90;;;;;;4196071;28;20454;-77
2022/12/10 04:05:39;;;;;;;36.37;13.67;;;0.50;99.90;;;;;;4194506;28;20467;-78
2022/12/10 04:07:41;;;;;;;38.07;14.10;;;0.50;99.90;;;;;;4193188;28;20487;-77
2022/12/10 04:09:44;;;;;;;39.57;14.77;;;0.40;99.90;;;;;;4191805;28;20455;-77
2022/12/10 04:11:46;;;;;;;40.73;15.43;;;0.40;99.90;;;;;;4192602;28;20437;-77
2022/12/10 04:18:28;;;;;;;39.87;14.87;;;0.40;99.90;;;;;;4191697;28;20904;-77
2022/12/10 04:27:25;;;;;;;41.93;14.73;;;0.30;99.90;;;;;;4162436;28;20507;-77
2022/12/10 04:29:29;;;;;;;44.83;15.70;;;0.30;99.90;;;;;;4194975;28;20453;-77
2022/12/10 04:31:31;;;;;;;43.07;16.00;;;0.40;99.90;;;;;;4194324;28;20514;-76
2022/12/10 04:33:33;;;;;;;46.37;15.53;;;0.30;99.90;;;;;;4192704;28;20479;-77
2022/12/10 04:35:35;;;;;;;45.23;16.43;;;0.30;99.90;;;;;;4195753;28;20529;-79
2022/12/10 04:37:37;;;;;;;45.53;14.90;;;0.30;99.90;;;;;;4195039;28;20481;-77
2022/12/10 04:39:40;;;;;;;49.73;16.10;;;0.30;99.90;;;;;;4191547;28;20950;-77
2022/12/10 04:41:45;;;;;;;44.90;16.63;;;0.30;99.90;;;;;;4189581;28;20538;-77
2022/12/10 04:43:47;;;;;;;50.20;17.37;;;0.30;99.90;;;;;;4191647;28;20511;-77
2022/12/10 04:45:49;;;;;;;48.63;16.23;;;0.30;99.90;;;;;;4191659;28;20499;-79
2022/12/10 04:47:51;;;;;;;54.57;18.37;;;0.30;99.90;;;;;;4191961;28;20943;-77
2022/12/10 04:49:53;;;;;;;44.83;16.50;;;0.30;99.90;;;;;;4193840;28;20493;-77
2022/12/10 04:51:55;;;;;;;43.50;14.93;;;0.30;99.90;;;;;;4193657;28;20444;-77
2022/12/10 04:53:57;;;;;;;45.70;16.03;;;0.30;99.90;;;;;;4189192;28;20457;-78
2022/12/10 04:56:00;;;;;;;43.63;16.40;;;0.30;99.90;;;;;;4193321;28;20528;-76
2022/12/10 04:58:04;;;;;;;50.33;16.33;;;0.30;99.90;;;;;;4190671;28;20455;-78
2022/12/10 05:00:07;;;;;;;45.33;15.53;;;0.30;99.90;;;;;;4189712;28;20463;-78
2022/12/10 05:02:09;;;;;;;50.07;15.40;;;0.30;99.90;;;;;;4195306;28;20476;-78
2022/12/10 05:04:15;;;;;;;41.03;14.77;;;0.30;99.90;;;;;;4191255;28;20462;-77
2022/12/10 05:06:18;;;;;;;41.10;15.30;;;0.30;99.90;;;;;;4190379;28;20489;-78
2022/12/10 05:08:20;;;;;;;43.13;14.63;;;0.30;99.90;;;;;;4190525;28;20568;-75
2022/12/10 05:10:22;;;;;;;48.00;16.57;;;0.30;99.90;;;;;;4187684;28;20531;-76
2022/12/10 05:12:24;;;;;;;45.83;16.57;;;0.30;99.90;;;;;;4193684;28;20576;-76
2022/12/10 05:14:27;;;;;;;40.13;15.17;;;0.30;99.90;;;;;;4191865;28;20472;-77
2022/12/10 05:16:31;;;;;;;50.40;16.90;;;0.30;99.90;;;;;;4196512;28;21109;-77
2022/12/10 05:18:33;;;;;;;49.97;17.30;;;0.40;99.90;;;;;;4194135;28;20894;-77
2022/12/10 05:20:35;;;;;;;49.30;17.57;;;0.30;99.90;;;;;;4193456;28;20462;-75
2022/12/10 05:24:56;;;;;;;49.87;16.27;;;0.30;99.90;;;;;;4196351;28;20473;-77
2022/12/10 05:27:00;;;;;;;47.87;17.13;;;0.30;99.90;;;;;;4186692;28;20452;-75
2022/12/10 05:29:02;;;;;;;47.83;16.50;;;0.30;99.90;;;;;;4189006;28;20491;-75
2022/12/10 05:31:11;;;;;;;48.57;16.03;;;0.30;99.90;;;;;;4194998;28;20921;-75
2022/12/10 05:33:13;;;;;;;49.80;15.77;;;0.30;99.90;;;;;;4192606;28;20486;-74
2022/12/10 05:35:15;;;;;;;50.00;16.90;;;0.30;99.90;;;;;;4193302;28;20584;-74
2022/12/10 05:37:17;;;;;;;50.13;16.70;;;0.30;99.90;;;;;;4195042;28;20458;-75
2022/12/10 05:39:19;;;;;;;47.50;17.30;;;0.60;99.90;;;;;;4190363;28;20520;-75
2022/12/10 05:41:23;;;;;;;44.70;15.57;;;0.50;99.90;;;;;;4195120;28;20455;-75
2022/12/10 05:43:25;;;;;;;42.97;16.13;;;0.30;99.90;;;;;;4194174;28;20444;-75
2022/12/10 05:45:27;;;;;;;44.37;15.03;;;0.30;99.90;;;;;;4194403;28;20499;-75
2022/12/10 05:47:30;;;;;;;52.00;17.93;;;0.30;99.90;;;;;;4193229;28;20542;-75
2022/12/10 05:49:32;;;;;;;48.57;16.73;;;0.30;99.90;;;;;;4193031;28;20478;-77
2022/12/10 05:51:35;;;;;;;48.40;16.33;;;0.30;99.90;;;;;;4194228;28;20527;-77
2022/12/10 05:53:38;;;;;;;54.00;16.70;;;0.20;99.90;;;;;;4194453;28;20448;-77
2022/12/10 05:55:40;;;;;;;47.50;17.37;;;0.30;99.90;;;;;;4195543;28;20483;-77
2022/12/10 05:57:42;;;;;;;52.67;17.70;;;0.20;99.90;;;;;;4200432;28;20457;-77
2022/12/10 05:59:44;;;;;;;51.67;16.03;;;0.40;99.90;;;;;;4195163;28;20910;-77
2022/12/10 06:01:46;;;;;;;52.53;17.27;;;0.20;99.90;;;;;;4194371;28;20476;-77
2022/12/10 06:03:52;;;;;;;48.73;16.73;;;0.20;99.90;;;;;;4191662;28;21140;-77
2022/12/10 06:05:54;;;;;;;50.00;17.70;;;0.30;99.90;;;;;;4191449;28;20479;-76
2022/12/10 06:07:56;;;;;;;56.77;17.73;;;0.20;99.90;;;;;;4194888;28;20472;-77
2022/12/10 06:09:58;;;;;;;54.93;17.27;;;0.20;99.90;;;;;;4192690;28;20509;-77
2022/12/10 06:12:00;;;;;;;47.43;17.17;;;0.20;99.90;;;;;;4193139;28;20451;-77
2022/12/10 06:14:02;;;;;;;45.50;16.73;;;0.20;99.90;;;;;;4194018;28;20461;-76
2022/12/10 06:16:06;;;;;;;48.47;16.87;;;0.20;99.90;;;;;;4198522;28;20537;-77
2022/12/10 06:18:08;;;;;;;56.87;19.00;;;0.20;99.90;;;;;;4194651;28;20545;-77
2022/12/10 06:20:15;;;;;;;48.63;17.13;;;0.20;99.90;;;;;;4193856;28;20465;-77
2022/12/10 06:22:17;;;;;;;50.27;16.77;;;0.20;99.90;;;;;;4188855;28;20510;-75
2022/12/10 06:24:19;;;;;;;49.37;17.17;;;0.20;99.90;;;;;;4200440;28;20463;-77
2022/12/10 06:26:23;;;;;;;47.97;16.97;;;0.20;99.90;;;;;;4198032;28;20483;-77
2022/12/10 06:28:25;;;;;;;49.33;16.40;;;0.20;99.90;;;;;;4195204;28;20622;-77
2022/12/10 06:30:27;;;;;;;50.90;16.43;;;0.20;99.90;;;;;;4190162;28;20504;-77
2022/12/10 06:32:29;;;;;;;43.97;16.47;;;0.10;99.90;;;;;;4195999;28;20446;-77
2022/12/10 06:34:34;;;;;;;52.53;17.27;;;0.10;99.90;;;;;;4194999;28;21040;-77
2022/12/10 06:36:37;;;;;;;50.87;16.77;;;0.10;99.90;;;;;;4194902;28;20474;-77
2022/12/10 06:38:40;;;;;;;52.27;17.13;;;0.10;99.90;;;;;;4192979;28;20458;-77
2022/12/10 06:40:41;;;;;;;42.40;15.17;;;0.10;99.90;;;;;;4195557;28;20490;-76
2022/12/10 06:42:43;;;;;;;47.07;15.83;;;0.10;99.90;;;;;;4194083;28;20527;-77
2022/12/10 06:44:45;;;;;;;48.83;16.50;;;0.10;99.90;;;;;;4197098;28;21247;-77
2022/12/10 06:46:47;;;;;;;44.77;15.43;;;0.10;99.90;;;;;;4196936;28;20815;-77
2022/12/10 06:48:49;;;;;;;48.83;16.87;;;0.10;99.90;;;;;;4192953;28;20513;-77
2022/12/10 06:50:51;;;;;;;51.03;16.87;;;0.20;99.90;;;;;;4193383;28;20462;-76
2022/12/10 06:52:55;;;;;;;46.80;15.77;;;0.10;99.90;;;;;;4190799;28;20583;-77
2022/12/10 06:54:57;;;;;;;47.63;16.60;;;0.20;99.90;;;;;;4192009;28;20465;-77
2022/12/10 06:56:59;;;;;;;45.90;17.27;;;0.70;99.90;;;;;;4192597;28;20504;-77
2022/12/10 06:59:06;;;;;;;51.47;15.97;;;1.10;99.90;;;;;;4195019;28;20451;-77
2022/12/10 07:01:10;;;;;;;47.40;16.73;;;0.20;99.90;;;;;;4198466;28;20844;-76
2022/12/10 07:03:12;;;;;;;50.50;16.80;;;0.20;99.90;;;;;;4202028;28;20573;-76
2022/12/10 07:05:14;;;;;;;50.10;16.60;;;1.00;99.90;;;;;;4196122;28;20974;-76
2022/12/10 07:07:16;;;;;;;52.43;17.07;;;0.30;99.90;;;;;;4194456;28;20451;-77
2022/12/10 07:09:19;;;;;;;49.53;16.87;;;0.30;99.90;;;;;;4197509;28;20485;-77
2022/12/10 07:11:23;;;;;;;49.23;15.73;;;0.30;99.90;;;;;;4191396;28;21022;-77
2022/12/10 07:13:26;;;;;;;52.37;17.40;;;0.30;99.90;;;;;;4193423;28;20446;-77
2022/12/10 07:15:28;;;;;;;52.03;17.20;;;0.90;99.90;;;;;;4191858;28;20512;-77
2022/12/10 07:17:30;;;;;;;52.17;17.03;;;0.20;99.90;;;;;;4190186;28;20527;-77
2022/12/10 07:19:32;;;;;;;53.20;18.17;;;0.20;99.90;;;;;;4197279;28;20450;-78
2022/12/10 07:21:36;;;;;;;49.67;16.87;;;1.10;99.90;;;;;;4199447;28;20478;-77
2022/12/10 07:23:38;;;;;;;45.40;15.60;;;0.20;99.90;;;;;;4195347;28;20455;-77
2022/12/10 07:25:41;;;;;;;49.93;16.70;;;0.20;99.90;;;;;;4199550;28;21029;-77
2022/12/10 07:27:43;;;;;;;48.40;16.13;;;1.30;99.90;;;;;;4195298;28;20481;-77
2022/12/10 07:29:46;;;;;;;46.83;15.73;;;0.10;99.90;;;;;;4193519;28;21044;-77
2022/12/10 07:31:49;;;;;;;50.43;16.40;;;0.10;99.90;;;;;;4193572;28;20458;-77
2022/12/10 07:33:53;;;;;;;44.40;16.23;;;0.10;99.90;;;;;;4192647;28;20954;-75
2022/12/10 07:35:56;;;;;;;46.53;16.03;;;0.10;99.90;;;;;;4189725;28;21141;-76
2022/12/10 07:37:58;;;;;;;45.63;15.90;;;0.10;99.90;;;;;;4188408;28;20456;-77
2022/12/10 07:40:00;;;;;;;44.90;15.47;;;0.10;99.90;;;;;;4192552;28;20453;-76
2022/12/10 07:42:04;;;;;;;46.43;15.97;;;0.00;99.90;;;;;;4191070;28;20511;-77
2022/12/10 07:44:08;;;;;;;45.30;16.10;;;0.10;99.90;;;;;;4194418;28;20519;-77
2022/12/10 07:46:12;;;;;;;48.67;15.37;;;0.10;99.90;;;;;;4194117;28;20483;-76
2022/12/10 07:48:15;;;;;;;49.03;16.43;;;0.00;99.90;;;;;;4195598;28;20462;-76
2022/12/10 07:50:17;;;;;;;49.27;14.97;;;0.00;99.90;;;;;;4192259;28;20494;-76
2022/12/10 07:52:19;;;;;;;38.47;12.80;;;0.10;99.90;;;;;;4192129;28;20467;-76
2022/12/10 07:54:21;;;;;;;44.60;15.27;;;0.00;99.90;;;;;;4192152;28;20458;-77
2022/12/10 07:56:24;;;;;;;47.70;15.00;;;0.00;99.90;;;;;;4192436;28;20466;-76
2022/12/10 07:58:28;;;;;;;44.07;14.87;;;0.00;99.90;;;;;;4191606;28;20951;-77
2022/12/10 08:00:30;;;;;;;44.47;15.63;;;0.00;99.90;;;;;;4196723;28;20859;-76
2022/12/10 08:02:33;;;;;;;46.33;16.17;;;0.00;99.90;;;;;;4194672;28;20486;-76
2022/12/10 08:04:37;;;;;;;42.13;14.97;;;-0.30;99.90;;;;;;4196505;28;20457;-76
2022/12/10 08:06:39;;;;;;;45.03;15.03;;;0.00;99.90;;;;;;4201233;28;20478;-76
2022/12/10 08:08:42;;;;;;;48.90;15.10;;;0.00;99.90;;;;;;4197305;28;20514;-76
2022/12/10 08:10:44;;;;;;;46.27;15.77;;;0.00;99.90;;;;;;4195076;28;20499;-74
2022/12/10 08:12:46;;;;;;;39.77;14.50;;;0.00;99.90;;;;;;4198725;28;20673;-78
2022/12/10 08:14:49;;;;;;;41.87;13.70;;;0.00;99.90;;;;;;4200010;28;20523;-77
2022/12/10 08:16:51;;;;;;;40.30;14.27;;;0.10;99.90;;;;;;4203572;28;21402;-77
2022/12/10 08:18:54;;;;;;;40.37;15.07;;;0.00;99.90;;;;;;4198557;28;20456;-78
2022/12/10 08:21:05;;;;;;;47.73;17.03;;;0.10;99.90;;;;;;4201937;28;20463;-78
2022/12/10 08:23:07;;;;;;;45.83;16.80;;;0.10;99.90;;;;;;4200321;28;20962;-76
2022/12/10 08:25:10;;;;;;;46.90;16.73;;;0.10;99.90;;;;;;4196658;28;20512;-74
2022/12/10 08:27:15;;;;;;;49.77;16.33;;;0.10;99.90;;;;;;4186685;28;20454;-75
2022/12/10 08:29:17;;;;;;;44.80;16.10;;;0.10;99.90;;;;;;4193749;28;20517;-77
2022/12/10 08:31:21;;;;;;;52.07;18.60;;;0.10;99.90;;;;;;4195502;28;20543;-74
2022/12/10 08:33:23;;;;;;;48.13;17.27;;;0.10;99.90;;;;;;4194749;28;20973;-77
2022/12/10 08:35:25;;;;;;;46.33;15.77;;;0.10;99.90;;;;;;4189276;28;20482;-75
2022/12/10 08:37:27;;;;;;;42.37;15.73;;;0.10;99.90;;;;;;4195180;28;20450;-77
2022/12/10 08:39:29;;;;;;;42.27;16.23;;;0.10;99.90;;;;;;4192989;28;20449;-77
2022/12/10 08:41:31;;;;;;;49.27;16.80;;;0.10;99.90;;;;;;4193606;28;20491;-77
2022/12/10 08:43:33;;;;;;;45.60;16.07;;;0.10;99.90;;;;;;4191207;28;20459;-75
2022/12/10 08:45:35;;;;;;;44.90;16.17;;;0.10;99.90;;;;;;4191502;28;20475;-75
2022/12/10 08:47:39;;;;;;;46.97;17.10;;;0.10;99.90;;;;;;4190893;28;20839;-76
2022/12/10 08:49:41;;;;;;;46.90;16.23;;;0.10;99.90;;;;;;4195396;28;20487;-75
2022/12/10 08:51:42;;;;;;;44.97;16.07;;;0.10;99.90;;;;;;4195136;28;20985;-77
2022/12/10 08:53:45;;;;;;;44.13;16.27;;;0.20;99.90;;;;;;4196059;28;20462;-76
2022/12/10 08:55:50;;;;;;;43.37;15.40;;;0.10;99.90;;;;;;4189988;28;20584;-76
2022/12/10 08:57:52;;;;;;;43.27;15.10;;;0.10;99.90;;;;;;4193102;28;20455;-75
2022/12/10 08:59:54;;;;;;;50.50;17.00;;;0.10;99.90;;;;;;4191866;28;20559;-77
2022/12/10 09:01:56;;;;;;;39.80;15.57;;;0.20;99.90;;;;;;4188318;28;20495;-77
2022/12/10 09:04:00;;;;;;;42.30;16.10;;;0.10;99.90;;;;;;4190424;28;20548;-76
2022/12/10 09:06:06;;;;;;;43.13;15.63;;;0.10;99.90;;;;;;4196803;28;20619;-74
2022/12/10 09:08:08;;;;;;;45.27;15.57;;;0.10;99.90;;;;;;4190028;28;20482;-76
2022/12/10 09:10:11;;;;;;;44.33;16.33;;;0.10;99.90;;;;;;4192037;28;20494;-76
2022/12/10 09:12:13;;;;;;;44.00;15.50;;;0.10;99.90;;;;;;4190124;28;20448;-76
2022/12/10 09:14:15;;;;;;;41.87;14.93;;;0.10;99.90;;;;;;4188448;28;20522;-76
2022/12/10 09:16:17;;;;;;;49.50;17.47;;;0.10;99.90;;;;;;4189103;28;20478;-76
2022/12/10 09:18:19;;;;;;;50.80;17.50;;;0.10;99.90;;;;;;4192344;28;20536;-76
2022/12/10 09:20:23;;;;;;;45.40;15.17;;;0.10;99.90;;;;;;4192069;28;20486;-77
2022/12/10 09:22:25;;;;;;;45.03;16.80;;;0.20;99.90;;;;;;4190831;28;20451;-76
2022/12/10 09:24:27;;;;;;;48.07;16.03;;;0.30;99.90;;;;;;4188369;28;20827;-77
2022/12/10 09:26:29;;;;;;;52.93;17.87;;;0.20;99.90;;;;;;4195971;28;20453;-77
2022/12/10 09:28:31;;;;;;;45.67;16.90;;;0.20;99.90;;;;;;4197094;28;21010;-77
2022/12/10 09:30:33;;;;;;;43.27;15.50;;;0.20;99.90;;;;;;4194057;28;20535;-77
2022/12/10 09:32:34;;;;;;;49.10;17.30;;;0.20;99.90;;;;;;4193184;28;20470;-76
2022/12/10 09:34:38;;;;;;;47.00;17.20;;;0.20;99.90;;;;;;4197106;28;20497;-76
2022/12/10 09:36:41;;;;;;;46.00;16.43;;;0.20;99.90;;;;;;4196068;28;20585;-76
2022/12/10 09:38:45;;;;;;;42.20;15.97;;;0.30;99.90;;;;;;4193958;28;20976;-76
2022/12/10 09:40:52;;;;;;;52.20;18.67;;;0.20;99.90;;;;;;4194688;28;21705;-77
2022/12/10 09:42:59;;;;;;;48.50;16.97;;;0.30;99.90;;;;;;4194040;28;20497;-76
2022/12/10 09:45:06;;;;;;;49.83;17.30;;;0.30;99.90;;;;;;4193812;28;21363;-78
2022/12/10 09:47:10;;;;;;;46.93;16.87;;;0.30;99.90;;;;;;4189799;28;20459;-76
2022/12/10 09:49:21;;;;;;;49.90;18.20;;;0.30;99.90;;;;;;4193233;28;20480;-76
2022/12/10 09:51:26;;;;;;;46.63;17.17;;;0.30;99.90;;;;;;4193248;28;20462;-76
2022/12/10 09:53:30;;;;;;;47.80;17.00;;;0.30;99.90;;;;;;4193441;28;20491;-76
2022/12/10 09:55:37;;;;;;;46.83;18.00;;;0.30;99.90;;;;;;4192965;28;20496;-76
2022/12/10 09:57:43;;;;;;;44.70;16.60;;;0.30;99.90;;;;;;4193445;28;20448;-76
2022/12/10 09:59:49;;;;;;;46.63;16.33;;;0.40;99.90;;;;;;4190689;28;20551;-76
2022/12/10 10:02:02;;;;;;;46.37;17.03;;;0.40;99.90;;;;;;4192681;28;20974;-76
2022/12/10 10:04:06;;;;;;;48.17;16.43;;;0.40;99.90;;;;;;4190684;28;20463;-76
2022/12/10 10:06:12;;;;;;;46.80;16.40;;;0.40;99.90;;;;;;4192266;28;20454;-76
2022/12/10 10:08:22;;;;;;;43.73;16.47;;;0.40;99.90;;;;;;4193826;28;20501;-76
2022/12/10 10:10:28;;;;;;;44.20;16.03;;;0.40;99.90;;;;;;4190077;28;20575;-76
2022/12/10 10:12:32;;;;;;;43.60;15.73;;;0.50;99.90;;;;;;4195119;28;20454;-76
2022/12/10 10:14:34;;;;;;;42.00;15.87;;;0.50;99.90;;;;;;4192975;28;20511;-76
2022/12/10 10:16:40;;;;;;;43.53;15.57;;;0.50;99.90;;;;;;4191321;28;20453;-76
2022/12/10 10:18:45;;;;;;;46.63;17.10;;;0.50;99.90;;;;;;4194332;28;21119;-76
2022/12/10 10:20:47;;;;;;;39.67;14.77;;;0.50;99.90;;;;;;4195147;28;20458;-78
2022/12/10 10:22:50;;;;;;;39.53;15.90;;;0.60;99.90;;;;;;4191610;28;20986;-77
2022/12/10 10:24:52;;;;;;;49.10;17.33;;;0.60;99.90;;;;;;4194848;28;20511;-77
2022/12/10 10:26:58;;;;;;;47.23;16.13;;;0.60;99.90;;;;;;4194272;28;20553;-77
2022/12/10 10:29:03;;;;;;;41.93;15.80;;;0.60;99.90;;;;;;4190386;28;20844;-78
2022/12/10 10:31:18;;;;;;;43.33;16.07;;;0.80;99.90;;;;;;4192060;28;20852;-77
2022/12/10 10:33:20;;;;;;;37.87;13.73;;;0.70;99.90;;;;;;4190620;28;20538;-76
2022/12/10 10:35:29;;;;;;;36.80;14.33;;;0.70;99.90;;;;;;4192605;28;20490;-77
2022/12/10 10:37:41;;;;;;;41.60;15.17;;;0.70;99.90;;;;;;4192029;28;20500;-77
2022/12/10 10:39:48;;;;;;;40.60;16.27;;;0.70;99.90;;;;;;4193147;28;20811;-77
2022/12/10 10:41:53;;;;;;;39.57;14.80;;;0.70;99.90;;;;;;4197575;28;20463;-77
2022/12/10 10:44:03;;;;;;;41.43;15.27;;;0.80;99.90;;;;;;4193230;28;20528;-77
2022/12/10 10:46:11;;;;;;;36.00;13.67;;;0.80;99.90;;;;;;4193193;28;20509;-78
2022/12/10 10:48:16;;;;;;;36.27;14.30;;;0.80;99.90;;;;;;4192816;28;20861;-80
2022/12/10 10:50:26;;;;;;;38.43;14.27;;;0.80;99.90;;;;;;4193785;28;20479;-79